sensor_id;sensor_type;location;lat;lon;timestamp;P1;durP1;ratioP1;P2;durP2;ratioP2
2624;SDS011;1322;53.256;10.386;2023-01-30T00:00:31;30.13;;;18.43;;
2624;SDS011;1322;53.256;10.386;2023-01-30T00:02:57;32.20;;;18.47;;
2624;SDS011;1322;53.256;10.386;2023-01-30T00:05:23;31.63;;;17.83;;
2624;SDS011;1322;53.256;10.386;2023-01-30T00:07:48;27.13;;;16.47;;
2624;SDS011;1322;53.256;10.386;2023-01-30T00:10:14;31.20;;;17.50;;
2624;SDS011;1322;53.256;10.386;2023-01-30T00:12:40;28.73;;;16.93;;
2624;SDS011;1322;53.256;10.386;2023-01-30T00:15:06;31.00;;;17.90;;
2624;SDS011;1322;53.256;10.386;2023-01-30T00:17:32;32.73;;;16.93;;
2624;SDS011;1322;53.256;10.386;2023-01-30T00:19:58;33.93;;;20.40;;
2624;SDS011;1322;53.256;10.386;2023-01-30T00:22:24;37.60;;;20.60;;
2624;SDS011;1322;53.256;10.386;2023-01-30T00:24:49;34.03;;;17.70;;
2624;SDS011;1322;53.256;10.386;2023-01-30T00:27:15;35.17;;;19.10;;
2624;SDS011;1322;53.256;10.386;2023-01-30T00:29:41;30.40;;;19.40;;
2624;SDS011;1322;53.256;10.386;2023-01-30T00:32:06;33.10;;;19.73;;
2624;SDS011;1322;53.256;10.386;2023-01-30T00:34:32;34.60;;;19.50;;
2624;SDS011;1322;53.256;10.386;2023-01-30T00:36:58;37.40;;;19.93;;
2624;SDS011;1322;53.256;10.386;2023-01-30T00:39:24;39.87;;;18.80;;
2624;SDS011;1322;53.256;10.386;2023-01-30T00:41:49;34.07;;;19.60;;
2624;SDS011;1322;53.256;10.386;2023-01-30T00:44:33;38.80;;;22.90;;
2624;SDS011;1322;53.256;10.386;2023-01-30T00:47:18;36.13;;;20.40;;
2624;SDS011;1322;53.256;10.386;2023-01-30T00:49:44;30.73;;;18.03;;
2624;SDS011;1322;53.256;10.386;2023-01-30T00:52:09;33.07;;;19.27;;
2624;SDS011;1322;53.256;10.386;2023-01-30T00:54:35;31.33;;;17.53;;
2624;SDS011;1322;53.256;10.386;2023-01-30T00:57:01;37.43;;;19.07;;
2624;SDS011;1322;53.256;10.386;2023-01-30T00:59:26;27.40;;;17.80;;
2624;SDS011;1322;53.256;10.386;2023-01-30T01:01:52;37.00;;;20.60;;
2624;SDS011;1322;53.256;10.386;2023-01-30T01:04:18;32.03;;;18.70;;
2624;SDS011;1322;53.256;10.386;2023-01-30T01:06:44;32.80;;;19.27;;
2624;SDS011;1322;53.256;10.386;2023-01-30T01:09:10;31.87;;;19.53;;
2624;SDS011;1322;53.256;10.386;2023-01-30T01:11:36;33.60;;;18.77;;
2624;SDS011;1322;53.256;10.386;2023-01-30T01:14:02;35.40;;;21.60;;
2624;SDS011;1322;53.256;10.386;2023-01-30T01:16:29;34.10;;;19.63;;
2624;SDS011;1322;53.256;10.386;2023-01-30T01:18:55;38.17;;;18.93;;
2624;SDS011;1322;53.256;10.386;2023-01-30T01:21:21;30.53;;;18.10;;
2624;SDS011;1322;53.256;10.386;2023-01-30T01:23:53;38.80;;;20.33;;
2624;SDS011;1322;53.256;10.386;2023-01-30T01:26:21;32.93;;;20.43;;
2624;SDS011;1322;53.256;10.386;2023-01-30T01:28:47;33.20;;;20.73;;
2624;SDS011;1322;53.256;10.386;2023-01-30T01:31:13;31.60;;;19.10;;
2624;SDS011;1322;53.256;10.386;2023-01-30T01:33:40;33.13;;;18.27;;
2624;SDS011;1322;53.256;10.386;2023-01-30T01:36:06;39.80;;;20.27;;
2624;SDS011;1322;53.256;10.386;2023-01-30T01:38:32;36.67;;;20.33;;
2624;SDS011;1322;53.256;10.386;2023-01-30T01:40:58;31.60;;;17.90;;
2624;SDS011;1322;53.256;10.386;2023-01-30T01:43:30;35.13;;;18.80;;
2624;SDS011;1322;53.256;10.386;2023-01-30T01:48:57;28.23;;;18.80;;
2624;SDS011;1322;53.256;10.386;2023-01-30T01:51:28;34.97;;;18.30;;
2624;SDS011;1322;53.256;10.386;2023-01-30T01:54:02;30.53;;;18.47;;
2624;SDS011;1322;53.256;10.386;2023-01-30T01:56:32;31.27;;;18.90;;
2624;SDS011;1322;53.256;10.386;2023-01-30T01:59:00;32.17;;;18.23;;
2624;SDS011;1322;53.256;10.386;2023-01-30T02:01:44;34.50;;;18.87;;
2624;SDS011;1322;53.256;10.386;2023-01-30T02:04:12;29.43;;;19.20;;
2624;SDS011;1322;53.256;10.386;2023-01-30T02:06:58;33.33;;;19.37;;
2624;SDS011;1322;53.256;10.386;2023-01-30T02:09:24;33.70;;;19.43;;
2624;SDS011;1322;53.256;10.386;2023-01-30T02:11:51;37.67;;;21.43;;
2624;SDS011;1322;53.256;10.386;2023-01-30T02:14:21;29.77;;;17.27;;
2624;SDS011;1322;53.256;10.386;2023-01-30T02:16:46;34.60;;;20.03;;
2624;SDS011;1322;53.256;10.386;2023-01-30T02:19:28;27.07;;;17.77;;
2624;SDS011;1322;53.256;10.386;2023-01-30T02:22:27;32.80;;;19.40;;
2624;SDS011;1322;53.256;10.386;2023-01-30T02:33:36;38.30;;;21.60;;
2624;SDS011;1322;53.256;10.386;2023-01-30T02:36:38;32.77;;;21.67;;
2624;SDS011;1322;53.256;10.386;2023-01-30T02:50:22;27.63;;;18.03;;
2624;SDS011;1322;53.256;10.386;2023-01-30T02:52:51;25.90;;;16.80;;
2624;SDS011;1322;53.256;10.386;2023-01-30T02:55:18;34.23;;;18.67;;
2624;SDS011;1322;53.256;10.386;2023-01-30T02:57:46;25.40;;;16.67;;
2624;SDS011;1322;53.256;10.386;2023-01-30T03:00:11;26.03;;;16.80;;
2624;SDS011;1322;53.256;10.386;2023-01-30T03:02:57;22.13;;;14.93;;
2624;SDS011;1322;53.256;10.386;2023-01-30T03:08:22;22.67;;;14.83;;
2624;SDS011;1322;53.256;10.386;2023-01-30T03:10:59;24.00;;;15.70;;
2624;SDS011;1322;53.256;10.386;2023-01-30T03:13:33;22.30;;;13.67;;
2624;SDS011;1322;53.256;10.386;2023-01-30T03:16:34;22.63;;;15.00;;
2624;SDS011;1322;53.256;10.386;2023-01-30T03:19:02;21.67;;;15.20;;
2624;SDS011;1322;53.256;10.386;2023-01-30T03:21:31;19.60;;;14.37;;
2624;SDS011;1322;53.256;10.386;2023-01-30T03:23:57;20.00;;;11.73;;
2624;SDS011;1322;53.256;10.386;2023-01-30T03:26:23;21.00;;;12.37;;
2624;SDS011;1322;53.256;10.386;2023-01-30T03:28:54;19.17;;;12.27;;
2624;SDS011;1322;53.256;10.386;2023-01-30T03:31:20;22.53;;;13.17;;
2624;SDS011;1322;53.256;10.386;2023-01-30T03:33:45;22.40;;;13.03;;
2624;SDS011;1322;53.256;10.386;2023-01-30T03:36:11;16.73;;;10.90;;
2624;SDS011;1322;53.256;10.386;2023-01-30T03:38:37;16.53;;;10.83;;
2624;SDS011;1322;53.256;10.386;2023-01-30T03:41:03;18.03;;;11.33;;
2624;SDS011;1322;53.256;10.386;2023-01-30T03:43:29;20.27;;;11.60;;
2624;SDS011;1322;53.256;10.386;2023-01-30T03:45:55;15.40;;;10.93;;
2624;SDS011;1322;53.256;10.386;2023-01-30T03:48:20;14.90;;;9.90;;
2624;SDS011;1322;53.256;10.386;2023-01-30T03:50:46;19.40;;;11.40;;
2624;SDS011;1322;53.256;10.386;2023-01-30T03:53:12;16.80;;;10.00;;
2624;SDS011;1322;53.256;10.386;2023-01-30T03:55:37;14.60;;;10.20;;
2624;SDS011;1322;53.256;10.386;2023-01-30T03:58:04;18.50;;;10.60;;
2624;SDS011;1322;53.256;10.386;2023-01-30T04:00:30;19.17;;;10.83;;
2624;SDS011;1322;53.256;10.386;2023-01-30T04:02:56;18.83;;;11.10;;
2624;SDS011;1322;53.256;10.386;2023-01-30T04:05:23;14.20;;;9.40;;
2624;SDS011;1322;53.256;10.386;2023-01-30T04:07:48;15.07;;;10.80;;
2624;SDS011;1322;53.256;10.386;2023-01-30T04:10:15;14.37;;;10.07;;
2624;SDS011;1322;53.256;10.386;2023-01-30T04:12:42;15.80;;;10.67;;
2624;SDS011;1322;53.256;10.386;2023-01-30T04:15:08;15.87;;;10.30;;
2624;SDS011;1322;53.256;10.386;2023-01-30T04:17:34;14.80;;;8.97;;
2624;SDS011;1322;53.256;10.386;2023-01-30T04:20:00;14.10;;;9.60;;
2624;SDS011;1322;53.256;10.386;2023-01-30T04:22:26;13.63;;;9.20;;
2624;SDS011;1322;53.256;10.386;2023-01-30T04:24:51;13.07;;;8.47;;
2624;SDS011;1322;53.256;10.386;2023-01-30T04:27:17;13.80;;;8.57;;
2624;SDS011;1322;53.256;10.386;2023-01-30T04:29:42;10.00;;;7.90;;
2624;SDS011;1322;53.256;10.386;2023-01-30T04:32:08;11.33;;;8.20;;
2624;SDS011;1322;53.256;10.386;2023-01-30T04:34:34;10.60;;;8.23;;
2624;SDS011;1322;53.256;10.386;2023-01-30T04:36:59;14.53;;;7.90;;
2624;SDS011;1322;53.256;10.386;2023-01-30T04:39:25;10.70;;;8.03;;
2624;SDS011;1322;53.256;10.386;2023-01-30T04:41:50;12.87;;;9.00;;
2624;SDS011;1322;53.256;10.386;2023-01-30T04:44:16;12.30;;;7.10;;
2624;SDS011;1322;53.256;10.386;2023-01-30T04:46:42;13.70;;;8.80;;
2624;SDS011;1322;53.256;10.386;2023-01-30T04:49:08;16.30;;;8.23;;
2624;SDS011;1322;53.256;10.386;2023-01-30T04:51:35;13.13;;;8.60;;
2624;SDS011;1322;53.256;10.386;2023-01-30T04:54:00;10.17;;;7.40;;
2624;SDS011;1322;53.256;10.386;2023-01-30T04:56:26;9.93;;;7.63;;
2624;SDS011;1322;53.256;10.386;2023-01-30T04:58:52;10.20;;;7.63;;
2624;SDS011;1322;53.256;10.386;2023-01-30T05:01:22;12.27;;;6.77;;
2624;SDS011;1322;53.256;10.386;2023-01-30T05:03:50;11.60;;;8.20;;
2624;SDS011;1322;53.256;10.386;2023-01-30T05:06:19;12.93;;;6.67;;
2624;SDS011;1322;53.256;10.386;2023-01-30T05:08:50;12.80;;;6.37;;
2624;SDS011;1322;53.256;10.386;2023-01-30T05:11:17;11.07;;;5.03;;
2624;SDS011;1322;53.256;10.386;2023-01-30T05:13:44;7.53;;;4.70;;
2624;SDS011;1322;53.256;10.386;2023-01-30T05:16:10;5.53;;;4.50;;
2624;SDS011;1322;53.256;10.386;2023-01-30T05:18:36;7.73;;;5.57;;
2624;SDS011;1322;53.256;10.386;2023-01-30T05:21:03;7.20;;;4.73;;
2624;SDS011;1322;53.256;10.386;2023-01-30T05:23:33;7.57;;;4.43;;
2624;SDS011;1322;53.256;10.386;2023-01-30T05:25:59;4.60;;;3.70;;
2624;SDS011;1322;53.256;10.386;2023-01-30T05:28:25;8.13;;;3.80;;
2624;SDS011;1322;53.256;10.386;2023-01-30T05:30:50;12.27;;;3.60;;
2624;SDS011;1322;53.256;10.386;2023-01-30T05:33:16;8.47;;;3.67;;
2624;SDS011;1322;53.256;10.386;2023-01-30T05:35:46;4.53;;;3.30;;
2624;SDS011;1322;53.256;10.386;2023-01-30T05:38:12;3.57;;;3.10;;
2624;SDS011;1322;53.256;10.386;2023-01-30T05:40:37;5.93;;;2.30;;
2624;SDS011;1322;53.256;10.386;2023-01-30T05:43:03;7.20;;;2.23;;
2624;SDS011;1322;53.256;10.386;2023-01-30T05:45:28;4.20;;;2.27;;
2624;SDS011;1322;53.256;10.386;2023-01-30T05:47:54;5.73;;;2.10;;
2624;SDS011;1322;53.256;10.386;2023-01-30T05:50:20;3.80;;;1.70;;
2624;SDS011;1322;53.256;10.386;2023-01-30T05:52:45;3.30;;;1.90;;
2624;SDS011;1322;53.256;10.386;2023-01-30T05:55:11;2.87;;;1.70;;
2624;SDS011;1322;53.256;10.386;2023-01-30T05:57:37;8.50;;;1.80;;
2624;SDS011;1322;53.256;10.386;2023-01-30T06:00:04;4.50;;;1.23;;
2624;SDS011;1322;53.256;10.386;2023-01-30T06:02:30;3.37;;;1.90;;
2624;SDS011;1322;53.256;10.386;2023-01-30T06:04:56;10.43;;;1.70;;
2624;SDS011;1322;53.256;10.386;2023-01-30T06:07:21;8.20;;;1.87;;
2624;SDS011;1322;53.256;10.386;2023-01-30T06:09:47;5.67;;;1.67;;
2624;SDS011;1322;53.256;10.386;2023-01-30T06:12:13;4.77;;;1.87;;
2624;SDS011;1322;53.256;10.386;2023-01-30T06:14:38;8.80;;;2.20;;
2624;SDS011;1322;53.256;10.386;2023-01-30T06:17:04;3.00;;;1.30;;
2624;SDS011;1322;53.256;10.386;2023-01-30T06:19:29;4.67;;;1.40;;
2624;SDS011;1322;53.256;10.386;2023-01-30T06:21:55;7.53;;;2.23;;
2624;SDS011;1322;53.256;10.386;2023-01-30T06:24:21;2.70;;;1.53;;
2624;SDS011;1322;53.256;10.386;2023-01-30T06:26:47;5.67;;;1.57;;
2624;SDS011;1322;53.256;10.386;2023-01-30T06:29:12;6.23;;;1.97;;
2624;SDS011;1322;53.256;10.386;2023-01-30T06:31:38;5.07;;;1.47;;
2624;SDS011;1322;53.256;10.386;2023-01-30T06:34:03;3.80;;;1.50;;
2624;SDS011;1322;53.256;10.386;2023-01-30T06:36:29;8.83;;;1.87;;
2624;SDS011;1322;53.256;10.386;2023-01-30T06:38:55;8.80;;;1.70;;
2624;SDS011;1322;53.256;10.386;2023-01-30T06:41:20;8.73;;;1.40;;
2624;SDS011;1322;53.256;10.386;2023-01-30T06:43:46;5.13;;;1.57;;
2624;SDS011;1322;53.256;10.386;2023-01-30T06:46:12;4.23;;;1.70;;
2624;SDS011;1322;53.256;10.386;2023-01-30T06:48:37;4.40;;;1.70;;
2624;SDS011;1322;53.256;10.386;2023-01-30T06:51:03;7.30;;;1.80;;
2624;SDS011;1322;53.256;10.386;2023-01-30T06:53:29;11.57;;;1.93;;
2624;SDS011;1322;53.256;10.386;2023-01-30T06:55:58;6.53;;;1.43;;
2624;SDS011;1322;53.256;10.386;2023-01-30T06:58:25;13.27;;;2.30;;
2624;SDS011;1322;53.256;10.386;2023-01-30T07:00:51;10.73;;;1.80;;
2624;SDS011;1322;53.256;10.386;2023-01-30T07:03:17;10.97;;;1.90;;
2624;SDS011;1322;53.256;10.386;2023-01-30T07:05:44;10.13;;;2.40;;
2624;SDS011;1322;53.256;10.386;2023-01-30T07:08:11;5.00;;;1.93;;
2624;SDS011;1322;53.256;10.386;2023-01-30T07:10:38;7.30;;;2.63;;
2624;SDS011;1322;53.256;10.386;2023-01-30T07:13:04;10.13;;;2.00;;
2624;SDS011;1322;53.256;10.386;2023-01-30T07:15:30;6.47;;;1.57;;
2624;SDS011;1322;53.256;10.386;2023-01-30T07:17:56;4.30;;;1.60;;
2624;SDS011;1322;53.256;10.386;2023-01-30T07:20:22;8.53;;;2.00;;
2624;SDS011;1322;53.256;10.386;2023-01-30T07:22:49;7.47;;;1.93;;
2624;SDS011;1322;53.256;10.386;2023-01-30T07:25:19;6.57;;;1.93;;
2624;SDS011;1322;53.256;10.386;2023-01-30T07:27:53;7.70;;;1.97;;
2624;SDS011;1322;53.256;10.386;2023-01-30T07:30:21;10.40;;;2.23;;
2624;SDS011;1322;53.256;10.386;2023-01-30T07:32:54;7.07;;;1.73;;
2624;SDS011;1322;53.256;10.386;2023-01-30T07:35:25;9.60;;;2.27;;
2624;SDS011;1322;53.256;10.386;2023-01-30T07:37:52;7.23;;;1.90;;
2624;SDS011;1322;53.256;10.386;2023-01-30T07:40:18;12.23;;;2.10;;
2624;SDS011;1322;53.256;10.386;2023-01-30T07:42:55;6.57;;;2.07;;
2624;SDS011;1322;53.256;10.386;2023-01-30T07:45:35;6.70;;;2.60;;
2624;SDS011;1322;53.256;10.386;2023-01-30T07:48:03;6.67;;;2.40;;
2624;SDS011;1322;53.256;10.386;2023-01-30T07:50:28;14.37;;;3.23;;
2624;SDS011;1322;53.256;10.386;2023-01-30T07:52:54;10.37;;;2.27;;
2624;SDS011;1322;53.256;10.386;2023-01-30T07:55:19;16.30;;;2.23;;
2624;SDS011;1322;53.256;10.386;2023-01-30T07:57:45;17.03;;;3.07;;
2624;SDS011;1322;53.256;10.386;2023-01-30T08:00:11;8.93;;;2.70;;
2624;SDS011;1322;53.256;10.386;2023-01-30T08:02:37;15.70;;;4.00;;
2624;SDS011;1322;53.256;10.386;2023-01-30T08:05:03;13.47;;;4.37;;
2624;SDS011;1322;53.256;10.386;2023-01-30T08:07:29;17.43;;;4.00;;
2624;SDS011;1322;53.256;10.386;2023-01-30T08:09:54;17.60;;;3.07;;
2624;SDS011;1322;53.256;10.386;2023-01-30T08:12:20;18.50;;;4.17;;
2624;SDS011;1322;53.256;10.386;2023-01-30T08:14:46;25.37;;;4.67;;
2624;SDS011;1322;53.256;10.386;2023-01-30T08:17:11;15.50;;;4.00;;
2624;SDS011;1322;53.256;10.386;2023-01-30T08:19:37;23.10;;;4.10;;
2624;SDS011;1322;53.256;10.386;2023-01-30T08:22:02;16.20;;;3.40;;
2624;SDS011;1322;53.256;10.386;2023-01-30T08:24:28;14.67;;;3.70;;
2624;SDS011;1322;53.256;10.386;2023-01-30T08:26:54;14.30;;;3.80;;
2624;SDS011;1322;53.256;10.386;2023-01-30T08:29:19;15.83;;;3.30;;
2624;SDS011;1322;53.256;10.386;2023-01-30T08:31:45;15.90;;;4.03;;
2624;SDS011;1322;53.256;10.386;2023-01-30T08:34:11;10.53;;;3.93;;
2624;SDS011;1322;53.256;10.386;2023-01-30T08:36:36;19.33;;;4.80;;
2624;SDS011;1322;53.256;10.386;2023-01-30T08:39:02;18.17;;;4.23;;
2624;SDS011;1322;53.256;10.386;2023-01-30T08:41:29;17.67;;;4.43;;
2624;SDS011;1322;53.256;10.386;2023-01-30T08:43:54;26.80;;;3.80;;
2624;SDS011;1322;53.256;10.386;2023-01-30T08:46:20;22.10;;;5.10;;
2624;SDS011;1322;53.256;10.386;2023-01-30T08:48:46;18.80;;;4.90;;
2624;SDS011;1322;53.256;10.386;2023-01-30T08:51:12;16.13;;;4.20;;
2624;SDS011;1322;53.256;10.386;2023-01-30T08:53:38;24.20;;;4.80;;
2624;SDS011;1322;53.256;10.386;2023-01-30T08:56:04;21.17;;;5.43;;
2624;SDS011;1322;53.256;10.386;2023-01-30T08:58:30;11.20;;;2.97;;
2624;SDS011;1322;53.256;10.386;2023-01-30T09:00:55;21.27;;;4.33;;
2624;SDS011;1322;53.256;10.386;2023-01-30T09:03:21;18.20;;;4.03;;
2624;SDS011;1322;53.256;10.386;2023-01-30T09:05:52;24.37;;;6.10;;
2624;SDS011;1322;53.256;10.386;2023-01-30T09:08:18;16.57;;;4.23;;
2624;SDS011;1322;53.256;10.386;2023-01-30T09:10:44;19.47;;;4.70;;
2624;SDS011;1322;53.256;10.386;2023-01-30T09:13:10;12.20;;;2.97;;
2624;SDS011;1322;53.256;10.386;2023-01-30T09:15:35;18.90;;;4.03;;
2624;SDS011;1322;53.256;10.386;2023-01-30T09:18:01;32.83;;;5.07;;
2624;SDS011;1322;53.256;10.386;2023-01-30T09:20:27;19.40;;;3.83;;
2624;SDS011;1322;53.256;10.386;2023-01-30T09:22:52;21.80;;;4.30;;
2624;SDS011;1322;53.256;10.386;2023-01-30T09:25:18;22.43;;;4.87;;
2624;SDS011;1322;53.256;10.386;2023-01-30T09:27:46;26.30;;;4.87;;
2624;SDS011;1322;53.256;10.386;2023-01-30T09:30:13;16.60;;;5.50;;
2624;SDS011;1322;53.256;10.386;2023-01-30T09:32:38;16.83;;;3.50;;
2624;SDS011;1322;53.256;10.386;2023-01-30T09:35:04;14.20;;;5.00;;
2624;SDS011;1322;53.256;10.386;2023-01-30T09:37:30;17.17;;;4.27;;
2624;SDS011;1322;53.256;10.386;2023-01-30T09:39:56;20.00;;;4.67;;
2624;SDS011;1322;53.256;10.386;2023-01-30T09:42:38;20.57;;;4.40;;
2624;SDS011;1322;53.256;10.386;2023-01-30T09:47:50;17.83;;;3.20;;
2624;SDS011;1322;53.256;10.386;2023-01-30T09:53:24;17.83;;;3.53;;
2624;SDS011;1322;53.256;10.386;2023-01-30T09:56:12;14.50;;;3.80;;
2624;SDS011;1322;53.256;10.386;2023-01-30T09:58:43;17.43;;;3.70;;
2624;SDS011;1322;53.256;10.386;2023-01-30T10:01:26;16.10;;;3.83;;
2624;SDS011;1322;53.256;10.386;2023-01-30T10:06:50;11.50;;;3.43;;
2624;SDS011;1322;53.256;10.386;2023-01-30T10:12:26;18.47;;;4.30;;
2624;SDS011;1322;53.256;10.386;2023-01-30T10:23:28;22.47;;;4.20;;
2624;SDS011;1322;53.256;10.386;2023-01-30T10:26:14;15.33;;;3.30;;
2624;SDS011;1322;53.256;10.386;2023-01-30T10:28:48;13.33;;;4.70;;
2624;SDS011;1322;53.256;10.386;2023-01-30T10:31:21;11.27;;;3.50;;
2624;SDS011;1322;53.256;10.386;2023-01-30T10:36:50;14.90;;;4.23;;
2624;SDS011;1322;53.256;10.386;2023-01-30T10:44:43;16.77;;;4.33;;
2624;SDS011;1322;53.256;10.386;2023-01-30T10:53:16;18.10;;;3.90;;
2624;SDS011;1322;53.256;10.386;2023-01-30T10:56:02;13.37;;;4.20;;
2624;SDS011;1322;53.256;10.386;2023-01-30T11:03:52;15.20;;;3.27;;
2624;SDS011;1322;53.256;10.386;2023-01-30T11:06:21;9.30;;;3.40;;
2624;SDS011;1322;53.256;10.386;2023-01-30T11:08:49;16.37;;;4.80;;
2624;SDS011;1322;53.256;10.386;2023-01-30T11:14:09;12.67;;;3.07;;
2624;SDS011;1322;53.256;10.386;2023-01-30T11:19:11;19.70;;;5.07;;
2624;SDS011;1322;53.256;10.386;2023-01-30T11:21:38;13.90;;;3.13;;
2624;SDS011;1322;53.256;10.386;2023-01-30T11:27:16;10.10;;;3.60;;
2624;SDS011;1322;53.256;10.386;2023-01-30T11:33:03;16.77;;;3.97;;
2624;SDS011;1322;53.256;10.386;2023-01-30T11:35:34;13.40;;;3.40;;
2624;SDS011;1322;53.256;10.386;2023-01-30T11:38:24;20.23;;;3.27;;
2624;SDS011;1322;53.256;10.386;2023-01-30T11:43:46;18.93;;;4.97;;
2624;SDS011;1322;53.256;10.386;2023-01-30T11:46:19;14.20;;;3.70;;
2624;SDS011;1322;53.256;10.386;2023-01-30T11:48:48;9.73;;;2.60;;
2624;SDS011;1322;53.256;10.386;2023-01-30T11:51:19;8.93;;;2.07;;
2624;SDS011;1322;53.256;10.386;2023-01-30T11:53:55;13.33;;;3.13;;
2624;SDS011;1322;53.256;10.386;2023-01-30T12:02:25;2.70;;;1.10;;
2624;SDS011;1322;53.256;10.386;2023-01-30T12:05:00;8.03;;;1.10;;
2624;SDS011;1322;53.256;10.386;2023-01-30T12:07:29;3.87;;;0.83;;
2624;SDS011;1322;53.256;10.386;2023-01-30T12:09:57;3.70;;;1.10;;
2624;SDS011;1322;53.256;10.386;2023-01-30T12:12:33;5.40;;;1.63;;
2624;SDS011;1322;53.256;10.386;2023-01-30T12:15:19;3.37;;;1.30;;
2624;SDS011;1322;53.256;10.386;2023-01-30T12:20:50;4.13;;;1.30;;
2624;SDS011;1322;53.256;10.386;2023-01-30T12:26:09;5.43;;;1.70;;
2624;SDS011;1322;53.256;10.386;2023-01-30T12:32:10;9.57;;;2.07;;
2624;SDS011;1322;53.256;10.386;2023-01-30T12:34:41;7.33;;;2.13;;
2624;SDS011;1322;53.256;10.386;2023-01-30T12:42:54;8.00;;;2.00;;
2624;SDS011;1322;53.256;10.386;2023-01-30T12:45:30;7.40;;;1.57;;
2624;SDS011;1322;53.256;10.386;2023-01-30T12:48:42;6.40;;;2.13;;
2624;SDS011;1322;53.256;10.386;2023-01-30T12:54:38;15.87;;;2.40;;
2624;SDS011;1322;53.256;10.386;2023-01-30T13:00:03;6.90;;;2.40;;
2624;SDS011;1322;53.256;10.386;2023-01-30T13:05:24;6.10;;;1.77;;
2624;SDS011;1322;53.256;10.386;2023-01-30T13:09:11;9.90;;;2.20;;
2624;SDS011;1322;53.256;10.386;2023-01-30T13:11:11;10.90;;;2.00;;
2624;SDS011;1322;53.256;10.386;2023-01-30T13:14:13;5.50;;;2.43;;
2624;SDS011;1322;53.256;10.386;2023-01-30T13:16:50;5.27;;;2.20;;
2624;SDS011;1322;53.256;10.386;2023-01-30T13:19:29;13.73;;;2.30;;
2624;SDS011;1322;53.256;10.386;2023-01-30T13:22:14;5.33;;;1.60;;
2624;SDS011;1322;53.256;10.386;2023-01-30T13:25:25;13.17;;;3.23;;
2624;SDS011;1322;53.256;10.386;2023-01-30T13:27:53;7.03;;;2.57;;
2624;SDS011;1322;53.256;10.386;2023-01-30T13:30:21;12.10;;;2.87;;
2624;SDS011;1322;53.256;10.386;2023-01-30T13:32:50;11.93;;;3.33;;
2624;SDS011;1322;53.256;10.386;2023-01-30T13:35:25;9.60;;;2.27;;
2624;SDS011;1322;53.256;10.386;2023-01-30T13:37:58;13.17;;;3.40;;
2624;SDS011;1322;53.256;10.386;2023-01-30T13:40:27;20.20;;;3.87;;
2624;SDS011;1322;53.256;10.386;2023-01-30T13:42:59;12.43;;;4.27;;
2624;SDS011;1322;53.256;10.386;2023-01-30T13:45:30;10.40;;;3.50;;
2624;SDS011;1322;53.256;10.386;2023-01-30T13:53:42;14.40;;;4.50;;
2624;SDS011;1322;53.256;10.386;2023-01-30T13:59:20;14.03;;;3.10;;
2624;SDS011;1322;53.256;10.386;2023-01-30T14:17:55;14.00;;;3.57;;
2624;SDS011;1322;53.256;10.386;2023-01-30T14:21:13;16.33;;;4.30;;
2624;SDS011;1322;53.256;10.386;2023-01-30T14:23:52;11.60;;;3.57;;
2624;SDS011;1322;53.256;10.386;2023-01-30T14:29:08;13.63;;;2.40;;
2624;SDS011;1322;53.256;10.386;2023-01-30T14:31:47;10.13;;;2.60;;
2624;SDS011;1322;53.256;10.386;2023-01-30T14:50:49;9.83;;;3.00;;
2624;SDS011;1322;53.256;10.386;2023-01-30T14:53:14;4.63;;;1.97;;
2624;SDS011;1322;53.256;10.386;2023-01-30T14:55:56;12.17;;;4.07;;
2624;SDS011;1322;53.256;10.386;2023-01-30T14:58:24;16.13;;;3.67;;
2624;SDS011;1322;53.256;10.386;2023-01-30T15:00:54;15.70;;;3.80;;
2624;SDS011;1322;53.256;10.386;2023-01-30T15:03:23;17.87;;;7.70;;
2624;SDS011;1322;53.256;10.386;2023-01-30T15:05:49;17.67;;;6.37;;
2624;SDS011;1322;53.256;10.386;2023-01-30T15:08:17;17.67;;;3.83;;
2624;SDS011;1322;53.256;10.386;2023-01-30T15:13:43;12.43;;;4.80;;
2624;SDS011;1322;53.256;10.386;2023-01-30T15:21:51;16.70;;;6.00;;
2624;SDS011;1322;53.256;10.386;2023-01-30T15:30:19;12.40;;;3.80;;
2624;SDS011;1322;53.256;10.386;2023-01-30T15:33:21;10.33;;;3.10;;
2624;SDS011;1322;53.256;10.386;2023-01-30T15:35:48;18.07;;;4.13;;
2624;SDS011;1322;53.256;10.386;2023-01-30T15:40:57;22.80;;;4.40;;
2624;SDS011;1322;53.256;10.386;2023-01-30T15:46:20;12.13;;;2.90;;
2624;SDS011;1322;53.256;10.386;2023-01-30T15:49:11;13.70;;;3.20;;
2624;SDS011;1322;53.256;10.386;2023-01-30T15:51:45;28.83;;;4.53;;
2624;SDS011;1322;53.256;10.386;2023-01-30T15:54:14;18.20;;;3.80;;
2624;SDS011;1322;53.256;10.386;2023-01-30T15:56:42;34.57;;;4.77;;
2624;SDS011;1322;53.256;10.386;2023-01-30T15:59:25;21.63;;;4.47;;
2624;SDS011;1322;53.256;10.386;2023-01-30T16:02:01;18.87;;;4.43;;
2624;SDS011;1322;53.256;10.386;2023-01-30T16:04:30;7.40;;;2.73;;
2624;SDS011;1322;53.256;10.386;2023-01-30T16:06:56;13.73;;;3.23;;
2624;SDS011;1322;53.256;10.386;2023-01-30T16:09:23;14.53;;;5.17;;
2624;SDS011;1322;53.256;10.386;2023-01-30T16:11:49;26.20;;;4.97;;
2624;SDS011;1322;53.256;10.386;2023-01-30T16:14:19;25.77;;;8.77;;
2624;SDS011;1322;53.256;10.386;2023-01-30T16:16:54;24.43;;;6.50;;
2624;SDS011;1322;53.256;10.386;2023-01-30T16:21:54;20.43;;;4.50;;
2624;SDS011;1322;53.256;10.386;2023-01-30T16:24:26;22.00;;;6.23;;
2624;SDS011;1322;53.256;10.386;2023-01-30T16:26:54;14.40;;;3.67;;
2624;SDS011;1322;53.256;10.386;2023-01-30T16:29:26;13.63;;;3.13;;
2624;SDS011;1322;53.256;10.386;2023-01-30T16:31:54;15.60;;;4.00;;
2624;SDS011;1322;53.256;10.386;2023-01-30T16:34:33;13.73;;;4.23;;
2624;SDS011;1322;53.256;10.386;2023-01-30T16:37:23;23.13;;;6.17;;
2624;SDS011;1322;53.256;10.386;2023-01-30T16:42:59;21.23;;;7.47;;
2624;SDS011;1322;53.256;10.386;2023-01-30T16:50:44;13.70;;;5.13;;
2624;SDS011;1322;53.256;10.386;2023-01-30T16:53:15;31.87;;;7.50;;
2624;SDS011;1322;53.256;10.386;2023-01-30T16:58:21;21.17;;;5.60;;
2624;SDS011;1322;53.256;10.386;2023-01-30T17:00:48;17.03;;;6.93;;
2624;SDS011;1322;53.256;10.386;2023-01-30T17:03:24;12.17;;;4.43;;
2624;SDS011;1322;53.256;10.386;2023-01-30T17:05:55;35.87;;;7.97;;
2624;SDS011;1322;53.256;10.386;2023-01-30T17:11:03;17.93;;;5.10;;
2624;SDS011;1322;53.256;10.386;2023-01-30T17:13:30;18.87;;;7.37;;
2624;SDS011;1322;53.256;10.386;2023-01-30T17:18:48;16.33;;;6.37;;
2624;SDS011;1322;53.256;10.386;2023-01-30T17:21:15;20.87;;;5.60;;
2624;SDS011;1322;53.256;10.386;2023-01-30T17:23:42;28.77;;;8.60;;
2624;SDS011;1322;53.256;10.386;2023-01-30T17:26:10;12.47;;;4.70;;
2624;SDS011;1322;53.256;10.386;2023-01-30T17:28:41;15.60;;;5.53;;
2624;SDS011;1322;53.256;10.386;2023-01-30T17:31:10;21.80;;;7.70;;
2624;SDS011;1322;53.256;10.386;2023-01-30T17:33:37;9.60;;;4.40;;
2624;SDS011;1322;53.256;10.386;2023-01-30T17:36:03;15.63;;;5.03;;
2624;SDS011;1322;53.256;10.386;2023-01-30T17:38:31;28.97;;;5.50;;
2624;SDS011;1322;53.256;10.386;2023-01-30T17:40:57;8.97;;;4.17;;
2624;SDS011;1322;53.256;10.386;2023-01-30T17:43:22;16.50;;;5.10;;
2624;SDS011;1322;53.256;10.386;2023-01-30T17:45:48;19.80;;;4.57;;
2624;SDS011;1322;53.256;10.386;2023-01-30T17:48:14;8.73;;;4.10;;
2624;SDS011;1322;53.256;10.386;2023-01-30T17:50:40;13.07;;;2.80;;
2624;SDS011;1322;53.256;10.386;2023-01-30T17:53:05;12.70;;;2.90;;
2624;SDS011;1322;53.256;10.386;2023-01-30T17:55:31;8.63;;;3.30;;
2624;SDS011;1322;53.256;10.386;2023-01-30T17:57:58;22.67;;;4.50;;
2624;SDS011;1322;53.256;10.386;2023-01-30T18:00:24;9.47;;;3.10;;
2624;SDS011;1322;53.256;10.386;2023-01-30T18:02:49;8.97;;;2.30;;
2624;SDS011;1322;53.256;10.386;2023-01-30T18:05:16;10.70;;;2.40;;
2624;SDS011;1322;53.256;10.386;2023-01-30T18:07:42;11.50;;;2.77;;
2624;SDS011;1322;53.256;10.386;2023-01-30T18:10:12;9.00;;;3.33;;
2624;SDS011;1322;53.256;10.386;2023-01-30T18:12:40;8.53;;;2.80;;
2624;SDS011;1322;53.256;10.386;2023-01-30T18:15:06;14.47;;;4.30;;